CWZZ

Saglek Bay Airport

Canada

CWZZ 200300Z AUTO 23014KT ////SM //// BKN070 OVC090 09/04 A2979

Observed Flight Rules
Sep-20 @ 03:00 UTC (an hour ago)
Unavailable
Wind Clouds
230° at 14 knots
  • Broken at 7,000' AGL
  • Overcast at 9,000' AGL
Temperatures Readings
Current 9°C / 48°F
Dewpoint 4°C / 39°F
Humidity 71%
Altimeter 29.79" Hg
Pressure 1009 hPa
Elevation 483
Observed Flight Rules
Sep-20 @ 03:00 UTC
(an hour ago)
UNK
Wind
230° at 14 knots
Clouds
  • Broken at 7,000' AGL
  • Overcast at 9,000' AGL
Temperature Dewpoint
9°C / 48°F 4°C / 39°F
Humidity Altimeter Pressure
71% 29.79" Hg 1009 hPa